createdAt,value
2018-11-11T00:00:56.845Z,97790.16
2018-11-11T00:03:24.045Z,97784.34
2018-11-11T00:05:51.341Z,97792.70
2018-11-11T00:08:18.639Z,97790.85
2018-11-11T00:10:45.912Z,97799.14
2018-11-11T00:13:13.188Z,97793.48
2018-11-11T00:15:40.420Z,97797.03
2018-11-11T00:18:07.702Z,97812.26
2018-11-11T00:20:34.992Z,97808.14
2018-11-11T00:23:02.272Z,97799.45
2018-11-11T00:25:29.585Z,97796.92
2018-11-11T00:27:56.783Z,97801.66
2018-11-11T00:30:24.010Z,97789.48
2018-11-11T00:32:51.231Z,97793.89
2018-11-11T00:35:18.505Z,97796.59
2018-11-11T00:37:45.757Z,97793.10
2018-11-11T00:40:14.817Z,97794.02
2018-11-11T00:42:42.325Z,97792.73
2018-11-11T00:45:10.237Z,97801.21
2018-11-11T00:47:37.485Z,97795.09
2018-11-11T00:50:05.950Z,97789.14
2018-11-11T00:52:33.172Z,97787.22
2018-11-11T00:55:00.539Z,97793.66
2018-11-11T00:57:27.737Z,97808.92
2018-11-11T00:59:54.984Z,97804.45
2018-11-11T01:02:22.241Z,97818.72
2018-11-11T01:04:49.511Z,97827.55
2018-11-11T01:07:16.796Z,97833.66
2018-11-11T01:09:44.029Z,97828.53
2018-11-11T01:12:11.284Z,97835.28
2018-11-11T01:14:38.861Z,97839.31
2018-11-11T01:17:06.556Z,97841.95
2018-11-11T01:19:33.765Z,97840.55
2018-11-11T01:24:51.056Z,97842.22
2018-11-11T01:27:18.356Z,97839.25
2018-11-11T01:29:45.560Z,97847.59
2018-11-11T01:32:12.855Z,97856.88
2018-11-11T01:34:40.047Z,97855.03
2018-11-11T01:37:07.325Z,97850.50
2018-11-11T01:39:34.557Z,97851.20
2018-11-11T01:42:01.897Z,97847.90
2018-11-11T01:44:29.189Z,97851.64
2018-11-11T01:46:56.487Z,97850.52
2018-11-11T01:49:23.732Z,97860.30
2018-11-11T01:51:51.508Z,97861.62
2018-11-11T01:54:18.765Z,97875.72
2018-11-11T01:56:46.932Z,97877.73
2018-11-11T01:59:14.267Z,97882.28
2018-11-11T02:01:41.514Z,97891.13
2018-11-11T02:04:08.726Z,97886.07
2018-11-11T02:06:35.967Z,97887.65
2018-11-11T02:09:05.194Z,97883.35
2018-11-11T02:11:32.394Z,97873.00
2018-11-11T02:13:59.622Z,97875.34
2018-11-11T02:16:26.897Z,97870.28
2018-11-11T02:18:54.176Z,97865.88
2018-11-11T02:21:21.675Z,97871.99
2018-11-11T02:23:48.934Z,97869.88
2018-11-11T02:26:16.214Z,97865.16
2018-11-11T02:28:43.493Z,97870.87
2018-11-11T02:31:10.779Z,97863.77
2018-11-11T02:33:38.552Z,97862.39
2018-11-11T02:36:05.809Z,97860.73
2018-11-11T02:38:33.106Z,97862.34
2018-11-11T02:41:00.345Z,97871.25
2018-11-11T02:43:27.556Z,97866.39
2018-11-11T02:45:54.765Z,97856.63
2018-11-11T02:48:22.066Z,97868.08
2018-11-11T02:50:49.314Z,97858.55
2018-11-11T02:53:16.557Z,97866.83
2018-11-11T02:55:43.865Z,97860.52
2018-11-11T02:58:11.148Z,97860.23
2018-11-11T03:00:38.407Z,97864.97
2018-11-11T03:03:05.648Z,97872.56
2018-11-11T03:05:32.882Z,97873.87
2018-11-11T03:08:00.178Z,97880.33
2018-11-11T03:10:27.424Z,97867.89
2018-11-11T03:12:54.677Z,97859.17
2018-11-11T03:15:21.886Z,97867.52
2018-11-11T03:17:49.494Z,97871.25
2018-11-11T03:20:17.047Z,97870.54
2018-11-11T03:22:44.402Z,97875.80
2018-11-11T03:25:13.002Z,97873.54
2018-11-11T03:27:40.657Z,97885.52
2018-11-11T03:30:09.555Z,97881.78
2018-11-11T03:32:37.143Z,97885.91
2018-11-11T03:35:06.390Z,97878.73
2018-11-11T03:37:33.601Z,97883.23
2018-11-11T03:40:00.811Z,97879.92
2018-11-11T03:42:28.123Z,97877.48
2018-11-11T03:44:55.360Z,97871.69
2018-11-11T03:47:22.592Z,97881.68
2018-11-11T03:49:49.822Z,97869.88
2018-11-11T03:52:17.121Z,97869.32
2018-11-11T03:54:44.378Z,97872.10
2018-11-11T03:57:11.667Z,97875.72
2018-11-11T03:59:39.024Z,97863.23
2018-11-11T04:02:06.312Z,97863.91
2018-11-11T04:04:33.913Z,97858.95
2018-11-11T04:07:01.163Z,97869.13
2018-11-11T04:09:28.439Z,97870.33
2018-11-11T04:11:55.645Z,97880.48
2018-11-11T04:14:22.874Z,97874.83
2018-11-11T04:16:50.089Z,97881.62
2018-11-11T04:19:17.343Z,97884.92
2018-11-11T04:21:46.223Z,97888.13
2018-11-11T04:24:15.096Z,97894.21
2018-11-11T04:26:42.778Z,97899.41
2018-11-11T04:29:10.016Z,97900.37
2018-11-11T04:31:37.231Z,97899.28
2018-11-11T04:34:04.694Z,97896.67
2018-11-11T04:36:31.918Z,97899.00
2018-11-11T04:38:59.252Z,97905.66
2018-11-11T04:41:26.501Z,97892.77
2018-11-11T04:43:53.786Z,97889.75
2018-11-11T04:46:21.176Z,97904.27
2018-11-11T04:48:48.453Z,97902.56
2018-11-11T04:51:15.656Z,97902.06
2018-11-11T04:53:42.904Z,97903.77
2018-11-11T04:56:10.145Z,97915.00
2018-11-11T04:58:37.412Z,97902.00
2018-11-11T05:01:04.721Z,97902.56
2018-11-11T05:03:32.197Z,97897.43
2018-11-11T05:05:59.474Z,97895.42
2018-11-11T05:08:26.806Z,97902.58
2018-11-11T05:10:54.062Z,97901.83
2018-11-11T05:13:21.357Z,97895.78
2018-11-11T05:15:48.616Z,97892.01
2018-11-11T05:18:15.918Z,97900.48
2018-11-11T05:20:43.870Z,97880.52
2018-11-11T05:23:11.106Z,97887.67
2018-11-11T05:25:38.393Z,97906.58
2018-11-11T05:28:05.710Z,97904.61
2018-11-11T05:30:32.971Z,97911.34
2018-11-11T05:33:00.210Z,97909.77
2018-11-11T05:35:27.418Z,97912.53
2018-11-11T05:37:54.623Z,97911.37
2018-11-11T05:40:21.908Z,97917.95
2018-11-11T05:42:49.127Z,97924.59
2018-11-11T05:45:16.440Z,97924.69
2018-11-11T05:47:44.680Z,97924.78
2018-11-11T05:50:13.243Z,97914.86
2018-11-11T05:52:40.838Z,97904.08
2018-11-11T05:55:08.435Z,97905.43
2018-11-11T05:57:35.675Z,97901.99
2018-11-11T06:00:03.069Z,97918.16
2018-11-11T06:02:30.391Z,97914.72
2018-11-11T06:04:57.782Z,97914.44
2018-11-11T06:07:25.057Z,97913.95
2018-11-11T06:09:52.620Z,97910.12
2018-11-11T06:12:20.117Z,97919.32
2018-11-11T06:14:48.226Z,97911.14
2018-11-11T06:17:15.702Z,97921.20
2018-11-11T06:19:43.407Z,97922.16
2018-11-11T06:22:12.132Z,97916.15
2018-11-11T06:24:39.934Z,97907.76
2018-11-11T06:27:07.962Z,97900.40
2018-11-11T06:29:35.799Z,97895.20
2018-11-11T06:32:03.492Z,97887.80
2018-11-11T06:34:31.174Z,97880.36
2018-11-11T06:36:59.372Z,97876.53
2018-11-11T06:39:26.765Z,97879.68
2018-11-11T06:41:54.156Z,97866.06
2018-11-11T06:44:21.764Z,97879.64
2018-11-11T06:46:49.174Z,97878.25
2018-11-11T06:49:16.457Z,97884.06
2018-11-11T06:51:44.072Z,97904.13
2018-11-11T06:54:11.419Z,97911.16
2018-11-11T06:56:38.820Z,97902.81
2018-11-11T06:59:06.747Z,97905.94
2018-11-11T07:01:34.405Z,97913.73
2018-11-11T07:04:02.639Z,97918.11
2018-11-11T07:06:30.525Z,97921.18
2018-11-11T07:08:58.092Z,97930.13
2018-11-11T07:11:26.146Z,97939.56
2018-11-11T07:13:53.560Z,97943.98
2018-11-11T07:16:20.953Z,97941.91
2018-11-11T07:18:48.324Z,97933.19
2018-11-11T07:21:16.419Z,97925.75
2018-11-11T07:23:44.179Z,97915.73
2018-11-11T07:26:11.806Z,97917.98
2018-11-11T07:28:39.779Z,97915.20
2018-11-11T07:31:08.510Z,97909.97
2018-11-11T07:33:36.961Z,97904.56
2018-11-11T07:36:07.143Z,97907.95
2018-11-11T07:38:35.249Z,97917.06
2018-11-11T07:41:04.102Z,97928.67
2018-11-11T07:43:32.179Z,97942.48
2018-11-11T07:45:59.885Z,97936.16
2018-11-11T07:48:27.194Z,97934.13
2018-11-11T07:50:58.417Z,97948.50
2018-11-11T07:53:26.197Z,97952.80
2018-11-11T07:55:54.442Z,97961.22
2018-11-11T07:58:23.006Z,97972.06
2018-11-11T08:00:50.680Z,97987.70
2018-11-11T08:03:18.521Z,97990.26
2018-11-11T08:05:46.209Z,98019.11
2018-11-11T08:08:15.053Z,98011.10
2018-11-11T08:10:54.125Z,98001.36
2018-11-11T08:13:22.720Z,98000.80
2018-11-11T08:15:50.445Z,97994.89
2018-11-11T08:18:18.079Z,98005.33
2018-11-11T08:20:45.981Z,98012.70
2018-11-11T08:23:15.120Z,98009.62
2018-11-11T08:25:43.776Z,98021.88
2018-11-11T08:28:11.930Z,98022.80
2018-11-11T08:30:39.783Z,98030.32
2018-11-11T08:33:09.432Z,98039.64
2018-11-11T08:35:37.029Z,98036.73
2018-11-11T08:38:05.846Z,98050.30
2018-11-11T08:40:33.630Z,98062.14
2018-11-11T08:43:03.569Z,98061.74
2018-11-11T08:45:30.965Z,98059.93
2018-11-11T08:48:00.584Z,98069.02
2018-11-11T08:50:28.509Z,98084.61
2018-11-11T08:52:56.371Z,98092.89
2018-11-11T08:55:25.873Z,98091.48
2018-11-11T08:57:55.191Z,98114.23
2018-11-11T09:00:23.931Z,98113.47
2018-11-11T09:02:51.600Z,98119.77
2018-11-11T09:05:19.558Z,98118.16
2018-11-11T09:07:47.902Z,98110.69
2018-11-11T09:10:15.441Z,98108.91
2018-11-11T09:12:43.284Z,98093.94
2018-11-11T09:15:14.148Z,98099.09
2018-11-11T09:17:45.687Z,98098.23
2018-11-11T09:20:15.341Z,98089.45
2018-11-11T09:22:42.856Z,98092.03
2018-11-11T09:25:10.790Z,98089.30
2018-11-11T09:27:39.325Z,98090.36
2018-11-11T09:30:08.947Z,98092.39
2018-11-11T09:32:36.390Z,98093.55
2018-11-11T09:35:05.837Z,98101.32
2018-11-11T09:37:33.294Z,98109.64
2018-11-11T09:40:00.924Z,98112.73
2018-11-11T09:42:28.358Z,98116.20
2018-11-11T09:44:55.799Z,98115.85
2018-11-11T09:47:23.390Z,98122.76
2018-11-11T09:49:50.729Z,98115.70
2018-11-11T09:52:18.286Z,98098.94
2018-11-11T09:54:45.730Z,98087.30
2018-11-11T09:57:13.161Z,98081.86
2018-11-11T09:59:40.611Z,98088.61
2018-11-11T10:02:08.117Z,98081.58
2018-11-11T10:04:39.566Z,98080.55
2018-11-11T10:07:17.672Z,98070.30
2018-11-11T10:10:25.165Z,98074.20
2018-11-11T10:13:00.461Z,98061.89
2018-11-11T10:15:32.647Z,98051.91
2018-11-11T10:18:17.259Z,98057.95
2018-11-11T10:21:04.146Z,98057.98
2018-11-11T10:23:38.175Z,98057.08
2018-11-11T10:26:15.626Z,98058.73
2018-11-11T10:30:49.561Z,98052.70
2018-11-11T10:33:29.928Z,98044.13
2018-11-11T10:36:03.662Z,98039.34
2018-11-11T10:38:35.842Z,98050.30
2018-11-11T10:41:05.688Z,98040.61
2018-11-11T10:44:10.494Z,98042.72
2018-11-11T10:47:09.400Z,98038.69
2018-11-11T10:49:51.844Z,98037.05
2018-11-11T10:52:19.480Z,98028.59
2018-11-11T10:54:48.707Z,98033.33
2018-11-11T10:57:17.187Z,98044.81
2018-11-11T10:59:44.906Z,98044.31
2018-11-11T11:02:18.283Z,98047.59
2018-11-11T11:04:51.697Z,98050.16
2018-11-11T11:07:19.840Z,98053.88
2018-11-11T11:09:47.912Z,98049.06
2018-11-11T11:12:16.233Z,98042.97
2018-11-11T11:14:43.593Z,98049.31
2018-11-11T11:17:11.392Z,98046.17
2018-11-11T11:19:38.857Z,98049.20
2018-11-11T11:22:07.447Z,98049.55
2018-11-11T11:24:35.046Z,98053.30
2018-11-11T11:27:03.383Z,98060.15
2018-11-11T11:29:32.567Z,98065.33
2018-11-11T11:32:00.945Z,98065.17
2018-11-11T11:34:28.258Z,98057.61
2018-11-11T11:36:56.336Z,98056.41
2018-11-11T11:39:23.790Z,98051.71
2018-11-11T11:41:51.589Z,98045.30
2018-11-11T11:44:19.571Z,98026.41
2018-11-11T11:46:46.881Z,98018.20
2018-11-11T11:49:14.254Z,98035.23
2018-11-11T11:51:41.715Z,98031.61
2018-11-11T11:54:09.276Z,98038.81
2018-11-11T11:56:37.311Z,98030.91
2018-11-11T11:59:05.648Z,98035.33
2018-11-11T12:01:33.242Z,98034.39
2018-11-11T12:04:02.068Z,98030.28
2018-11-11T12:06:30.122Z,98040.83
2018-11-11T12:08:57.507Z,98038.19
2018-11-11T12:11:24.872Z,98054.70
2018-11-11T12:13:53.829Z,98064.62
2018-11-11T12:16:22.075Z,98072.84
2018-11-11T12:18:50.099Z,98072.73
2018-11-11T12:21:18.207Z,98075.50
2018-11-11T12:23:46.536Z,98076.86
2018-11-11T12:26:13.839Z,98089.09
2018-11-11T12:28:46.755Z,98088.42
2018-11-11T12:31:14.341Z,98092.13
2018-11-11T12:33:46.833Z,98101.30
2018-11-11T12:36:14.839Z,98091.39
2018-11-11T12:38:43.172Z,98091.60
2018-11-11T12:41:10.600Z,98096.81
2018-11-11T12:43:38.120Z,98089.30
2018-11-11T12:46:05.474Z,98087.87
2018-11-11T12:48:32.934Z,98092.87
2018-11-11T12:51:00.254Z,98098.08
2018-11-11T12:53:28.314Z,98101.87
2018-11-11T12:55:57.053Z,98102.70
2018-11-11T12:58:24.432Z,98106.87
2018-11-11T13:00:52.025Z,98110.62
2018-11-11T13:03:19.429Z,98112.16
2018-11-11T13:05:46.825Z,98115.37
2018-11-11T13:08:14.161Z,98120.44
2018-11-11T13:10:41.540Z,98108.77
2018-11-11T13:13:22.850Z,98102.87
2018-11-11T13:16:04.440Z,98113.05
2018-11-11T13:18:45.083Z,98112.19
2018-11-11T13:21:13.218Z,98115.37
2018-11-11T13:23:41.344Z,98104.83
2018-11-11T13:26:09.935Z,98110.03
2018-11-11T13:28:37.863Z,98115.10
2018-11-11T13:31:06.064Z,98131.02
2018-11-11T13:33:33.546Z,98127.98
2018-11-11T13:36:02.458Z,98119.55
2018-11-11T13:38:29.942Z,98129.70
2018-11-11T13:40:57.286Z,98144.05
2018-11-11T13:43:24.737Z,98141.20
2018-11-11T13:45:52.053Z,98146.56
2018-11-11T13:48:19.375Z,98152.02
2018-11-11T13:50:46.786Z,98148.81
2018-11-11T13:53:14.845Z,98150.31
2018-11-11T13:55:43.057Z,98144.17
2018-11-11T13:58:10.622Z,98152.12
2018-11-11T14:00:37.972Z,98148.30
2018-11-11T14:03:05.480Z,98163.43
2018-11-11T14:05:34.140Z,98161.95
2018-11-11T14:08:01.554Z,98171.22
2018-11-11T14:10:29.434Z,98170.27
2018-11-11T14:12:56.906Z,98175.22
2018-11-11T14:15:25.495Z,98179.41
2018-11-11T14:17:53.908Z,98183.47
2018-11-11T14:20:22.854Z,98187.87
2018-11-11T14:22:51.182Z,98201.55
2018-11-11T14:25:22.596Z,98204.94
2018-11-11T14:27:54.135Z,98207.52
2018-11-11T14:30:27.009Z,98204.29
2018-11-11T14:33:01.101Z,98202.19
2018-11-11T14:35:28.806Z,98202.00
2018-11-11T14:37:56.917Z,98191.46
2018-11-11T14:40:27.244Z,98177.48
2018-11-11T14:42:54.717Z,98187.66
2018-11-11T14:45:22.712Z,98180.84
2018-11-11T14:47:53.076Z,98185.28
2018-11-11T14:50:26.726Z,98181.05
2018-11-11T14:53:00.156Z,98169.06
2018-11-11T14:55:29.057Z,98167.80
2018-11-11T14:57:57.329Z,98158.21
2018-11-11T15:00:27.543Z,98155.72
2018-11-11T15:03:05.126Z,98163.80
2018-11-11T15:05:37.758Z,98154.52
2018-11-11T15:08:06.350Z,98153.05
2018-11-11T15:10:37.186Z,98158.73
2018-11-11T15:13:07.560Z,98157.27
2018-11-11T15:15:37.524Z,98159.44
2018-11-11T15:18:06.841Z,98152.34
2018-11-11T15:20:36.616Z,98168.60
2018-11-11T15:23:07.409Z,98172.44
2018-11-11T15:25:36.217Z,98164.34
2018-11-11T15:28:13.148Z,98162.59
2018-11-11T15:30:48.276Z,98156.22
2018-11-11T15:33:18.779Z,98159.86
2018-11-11T15:35:46.559Z,98151.50
2018-11-11T15:38:15.502Z,98144.30
2018-11-11T15:40:44.650Z,98145.70
2018-11-11T15:43:12.382Z,98149.31
2018-11-11T15:45:48.825Z,98153.92
2018-11-11T15:48:17.635Z,98160.22
2018-11-11T15:50:45.441Z,98151.00
2018-11-11T15:53:13.041Z,98150.09
2018-11-11T15:55:40.653Z,98144.50
2018-11-11T15:58:08.434Z,98142.72
2018-11-11T16:00:37.434Z,98151.94
2018-11-11T16:03:05.048Z,98150.88
2018-11-11T16:05:32.245Z,98153.59
2018-11-11T16:08:00.931Z,98157.81
2018-11-11T16:10:29.684Z,98162.14
2018-11-11T16:12:57.182Z,98151.14
2018-11-11T16:15:26.301Z,98137.14
2018-11-11T16:17:55.214Z,98146.36
2018-11-11T16:20:23.922Z,98146.88
2018-11-11T16:22:52.451Z,98149.23
2018-11-11T16:25:19.892Z,98153.67
2018-11-11T16:27:47.850Z,98147.52
2018-11-11T16:30:17.873Z,98150.82
2018-11-11T16:32:45.860Z,98152.22
2018-11-11T16:35:14.345Z,98153.08
2018-11-11T16:37:42.095Z,98158.27
2018-11-11T16:40:12.026Z,98163.13
2018-11-11T16:42:39.448Z,98176.11
2018-11-11T16:45:07.888Z,98184.80
2018-11-11T16:47:35.510Z,98189.07
2018-11-11T16:50:03.172Z,98202.39
2018-11-11T16:52:30.401Z,98216.21
2018-11-11T16:54:57.608Z,98218.39
2018-11-11T16:57:24.878Z,98215.21
2018-11-11T16:59:52.676Z,98227.34
2018-11-11T17:02:20.277Z,98227.27
2018-11-11T17:04:48.330Z,98218.93
2018-11-11T17:07:16.027Z,98225.37
2018-11-11T17:09:43.575Z,98228.87
2018-11-11T17:12:10.957Z,98218.67
2018-11-11T17:14:39.662Z,98226.13
2018-11-11T17:17:07.593Z,98230.98
2018-11-11T17:19:35.053Z,98226.44
2018-11-11T17:22:02.342Z,98208.84
2018-11-11T17:24:29.610Z,98202.98
2018-11-11T17:26:57.125Z,98208.98
2018-11-11T17:29:24.381Z,98221.55
2018-11-11T17:31:52.936Z,98230.47
2018-11-11T17:34:20.329Z,98229.46
2018-11-11T17:36:48.759Z,98234.55
2018-11-11T17:39:16.424Z,98236.12
2018-11-11T17:41:44.533Z,98241.28
2018-11-11T17:44:11.942Z,98242.20
2018-11-11T17:46:39.382Z,98247.27
2018-11-11T17:49:06.820Z,98250.17
2018-11-11T17:51:34.396Z,98253.83
2018-11-11T17:54:01.657Z,98248.70
2018-11-11T17:56:28.903Z,98245.36
2018-11-11T17:58:56.225Z,98235.92
2018-11-11T18:01:25.157Z,98224.19
2018-11-11T18:03:52.569Z,98232.16
2018-11-11T18:06:19.804Z,98222.80
2018-11-11T18:08:47.066Z,98232.31
2018-11-11T18:11:14.341Z,98235.87
2018-11-11T18:13:41.699Z,98234.86
2018-11-11T18:16:09.216Z,98232.74
2018-11-11T18:18:36.465Z,98244.91
2018-11-11T18:21:03.689Z,98247.14
2018-11-11T18:23:30.934Z,98236.59
2018-11-11T18:25:58.177Z,98242.91
2018-11-11T18:28:25.415Z,98253.45
2018-11-11T18:30:52.732Z,98241.19
2018-11-11T18:33:20.728Z,98245.75
2018-11-11T18:35:48.059Z,98234.01
2018-11-11T18:38:16.543Z,98228.03
2018-11-11T18:40:43.808Z,98228.14
2018-11-11T18:43:11.096Z,98212.33
2018-11-11T18:45:38.457Z,98215.89
2018-11-11T18:48:06.081Z,98220.58
2018-11-11T18:50:33.771Z,98224.34
2018-11-11T18:53:01.522Z,98220.13
2018-11-11T18:55:28.874Z,98233.77
2018-11-11T18:57:57.395Z,98230.78
2018-11-11T19:00:26.243Z,98231.82
2018-11-11T19:02:54.434Z,98240.58
2018-11-11T19:05:22.498Z,98241.98
2018-11-11T19:07:50.042Z,98236.03
2018-11-11T19:10:20.383Z,98246.45
2018-11-11T19:12:49.489Z,98241.23
2018-11-11T19:15:18.740Z,98247.31
2018-11-11T19:17:46.756Z,98229.39
2018-11-11T19:20:16.900Z,98236.38
2018-11-11T19:22:44.480Z,98234.48
2018-11-11T19:25:13.744Z,98238.55
2018-11-11T19:27:42.016Z,98239.13
2018-11-11T19:30:10.355Z,98240.44
2018-11-11T19:32:38.365Z,98234.11
2018-11-11T19:35:05.893Z,98230.84
2018-11-11T19:37:33.516Z,98229.58
2018-11-11T19:40:00.997Z,98238.20
2018-11-11T19:42:28.371Z,98233.34
2018-11-11T19:44:55.762Z,98253.69
2018-11-11T19:47:23.189Z,98252.55
2018-11-11T19:49:50.770Z,98250.39
2018-11-11T19:52:18.128Z,98248.33
2018-11-11T19:54:45.578Z,98225.55
2018-11-11T19:57:12.987Z,98243.66
2018-11-11T19:59:40.627Z,98241.80
2018-11-11T20:02:08.215Z,98245.38
2018-11-11T20:04:35.642Z,98230.81
2018-11-11T20:07:03.354Z,98226.92
2018-11-11T20:09:30.715Z,98235.36
2018-11-11T20:11:58.352Z,98225.28
2018-11-11T20:14:25.989Z,98222.30
2018-11-11T20:16:53.360Z,98224.18
2018-11-11T20:19:20.691Z,98226.88
2018-11-11T20:21:48.005Z,98230.47
2018-11-11T20:24:15.379Z,98244.80
2018-11-11T20:26:42.998Z,98263.24
2018-11-11T20:29:10.279Z,98262.44
2018-11-11T20:31:37.597Z,98267.30
2018-11-11T20:34:05.451Z,98272.97
2018-11-11T20:36:33.074Z,98274.28
2018-11-11T20:39:00.442Z,98266.72
2018-11-11T20:41:28.187Z,98264.77
2018-11-11T20:43:55.534Z,98262.78
2018-11-11T20:46:22.796Z,98265.77
2018-11-11T20:48:50.179Z,98254.03
2018-11-11T20:51:17.549Z,98239.23
2018-11-11T20:53:45.045Z,98251.85
2018-11-11T20:56:12.903Z,98261.75
2018-11-11T20:58:41.596Z,98252.27
2018-11-11T21:01:09.669Z,98255.98
2018-11-11T21:03:37.195Z,98262.84
2018-11-11T21:06:05.297Z,98269.02
2018-11-11T21:08:32.589Z,98280.45
2018-11-11T21:10:59.924Z,98289.83
2018-11-11T21:13:28.279Z,98287.31
2018-11-11T21:15:55.890Z,98288.16
2018-11-11T21:18:24.144Z,98283.08
2018-11-11T21:20:51.370Z,98282.25
2018-11-11T21:23:18.617Z,98280.00
2018-11-11T21:25:45.870Z,98278.28
2018-11-11T21:28:14.020Z,98277.77
2018-11-11T21:30:41.283Z,98269.77
2018-11-11T21:33:08.534Z,98253.30
2018-11-11T21:35:35.741Z,98270.00
2018-11-11T21:38:03.030Z,98272.52
2018-11-11T21:40:30.236Z,98268.58
2018-11-11T21:42:57.513Z,98259.19
2018-11-11T21:45:25.690Z,98271.03
2018-11-11T21:47:52.981Z,98263.59
2018-11-11T21:50:21.394Z,98266.50
2018-11-11T21:53:27.369Z,98265.88
2018-11-11T21:55:54.569Z,98260.23
2018-11-11T21:58:21.996Z,98267.68
2018-11-11T22:00:59.826Z,98267.22
2018-11-11T22:03:27.199Z,98267.41
2018-11-11T22:05:54.877Z,98283.61
2018-11-11T22:08:22.583Z,98283.72
2018-11-11T22:10:50.220Z,98284.12
2018-11-11T22:13:17.990Z,98277.88
2018-11-11T22:15:45.330Z,98273.13
2018-11-11T22:18:12.594Z,98267.14
2018-11-11T22:20:39.842Z,98280.05
2018-11-11T22:23:07.628Z,98287.51
2018-11-11T22:25:35.142Z,98297.19
2018-11-11T22:28:02.728Z,98291.89
2018-11-11T22:30:30.034Z,98318.25
2018-11-11T22:32:57.422Z,98314.87
2018-11-11T22:35:24.819Z,98311.27
2018-11-11T22:37:52.293Z,98305.92
2018-11-11T22:40:19.517Z,98310.27
2018-11-11T22:42:46.821Z,98313.44
2018-11-11T22:45:14.853Z,98308.63
2018-11-11T22:47:42.198Z,98326.98
2018-11-11T22:50:12.929Z,98318.17
2018-11-11T22:52:40.286Z,98311.96
2018-11-11T22:55:08.749Z,98308.52
2018-11-11T22:57:36.111Z,98332.48
2018-11-11T23:00:06.812Z,98314.50
2018-11-11T23:02:34.118Z,98326.13
2018-11-11T23:05:01.529Z,98328.58
2018-11-11T23:07:28.785Z,98321.32
2018-11-11T23:09:56.233Z,98315.30
2018-11-11T23:12:23.494Z,98316.41
2018-11-11T23:14:50.961Z,98326.84
2018-11-11T23:17:18.624Z,98321.84
2018-11-11T23:19:45.994Z,98320.23
2018-11-11T23:22:13.770Z,98324.62
2018-11-11T23:24:41.137Z,98336.80
2018-11-11T23:27:08.902Z,98335.96
2018-11-11T23:29:36.408Z,98350.89
2018-11-11T23:32:03.704Z,98361.00
2018-11-11T23:34:31.164Z,98377.66
2018-11-11T23:36:58.720Z,98386.06
2018-11-11T23:39:26.154Z,98387.58
2018-11-11T23:41:53.914Z,98379.56
2018-11-11T23:44:21.607Z,98387.87
2018-11-11T23:46:49.126Z,98386.55
2018-11-11T23:49:16.406Z,98385.86
2018-11-11T23:51:43.734Z,98396.30
2018-11-11T23:54:11.744Z,98399.33
2018-11-11T23:56:39.000Z,98393.41
2018-11-11T23:59:06.324Z,98409.57
